createdAt,value
2023-02-19T00:01:25.918Z,76.86
2023-02-19T00:03:56.415Z,76.68
2023-02-19T00:06:24.869Z,77.35
2023-02-19T00:08:51.397Z,77.01
2023-02-19T00:11:20.153Z,77.23
2023-02-19T00:13:49.274Z,76.71
2023-02-19T00:16:18.448Z,77.85
2023-02-19T00:18:45.390Z,77.58
2023-02-19T00:21:12.322Z,76.70
2023-02-19T00:23:39.146Z,76.01
2023-02-19T00:26:17.490Z,76.15
2023-02-19T00:28:45.713Z,76.37
2023-02-19T00:31:19.276Z,76.43
2023-02-19T00:33:48.864Z,76.69
2023-02-19T00:36:15.778Z,77.28
2023-02-19T00:38:43.572Z,77.11
2023-02-19T00:41:20.095Z,77.61
2023-02-19T00:43:54.720Z,77.66
2023-02-19T00:46:31.674Z,79.10
2023-02-19T00:48:58.982Z,81.16
2023-02-19T00:51:28.664Z,80.74
2023-02-19T00:53:55.499Z,80.57
2023-02-19T00:56:22.442Z,78.57
2023-02-19T00:58:49.378Z,77.83
2023-02-19T01:01:16.722Z,79.43
2023-02-19T01:03:43.856Z,79.01
2023-02-19T01:06:11.332Z,79.69
2023-02-19T01:08:38.338Z,77.65
2023-02-19T01:11:05.800Z,77.90
2023-02-19T01:13:33.490Z,78.95
2023-02-19T01:16:21.248Z,78.03
2023-02-19T01:18:49.288Z,78.40
2023-02-19T01:21:21.896Z,79.27
2023-02-19T01:23:53.385Z,77.96
2023-02-19T01:26:22.713Z,77.67
2023-02-19T01:28:49.788Z,77.32
2023-02-19T01:31:20.357Z,76.42
2023-02-19T01:33:48.792Z,76.82
2023-02-19T01:36:15.886Z,77.28
2023-02-19T01:38:42.834Z,77.73
2023-02-19T01:41:12.732Z,76.24
2023-02-19T01:44:04.388Z,79.38
2023-02-19T01:46:33.344Z,78.84
2023-02-19T01:49:04.738Z,78.05
2023-02-19T01:51:32.675Z,79.21
2023-02-19T01:54:00.729Z,79.74
2023-02-19T01:56:27.757Z,80.98
2023-02-19T01:58:54.738Z,79.77
2023-02-19T02:01:21.457Z,78.22
2023-02-19T02:03:49.005Z,78.70
2023-02-19T02:06:25.034Z,78.22
2023-02-19T02:09:12.741Z,78.16
2023-02-19T02:11:42.749Z,77.82
2023-02-19T02:14:09.214Z,76.56
2023-02-19T02:16:52.710Z,76.69
2023-02-19T02:19:44.080Z,75.93
2023-02-19T02:22:21.129Z,76.33
2023-02-19T02:25:21.440Z,77.39
2023-02-19T02:27:53.937Z,77.11
2023-02-19T02:30:36.036Z,77.70
2023-02-19T02:33:07.300Z,77.33
2023-02-19T02:35:40.051Z,75.96
2023-02-19T02:38:08.416Z,78.50
2023-02-19T02:40:34.989Z,77.08
2023-02-19T02:43:01.650Z,76.85
2023-02-19T02:45:35.626Z,76.28
2023-02-19T02:48:25.184Z,76.28
2023-02-19T02:51:07.384Z,76.95
2023-02-19T02:54:00.555Z,77.37
2023-02-19T02:56:27.113Z,78.99
2023-02-19T02:58:54.511Z,78.39
2023-02-19T03:01:43.497Z,76.38
2023-02-19T03:04:14.381Z,75.53
2023-02-19T03:06:42.201Z,77.76
2023-02-19T03:09:15.308Z,78.61
2023-02-19T03:12:03.367Z,78.31
2023-02-19T03:14:58.017Z,76.38
2023-02-19T03:17:54.159Z,76.17
2023-02-19T03:20:23.334Z,76.56
2023-02-19T03:22:51.258Z,77.38
2023-02-19T03:25:38.721Z,77.28
2023-02-19T03:28:07.479Z,77.84
2023-02-19T03:30:36.870Z,75.08
2023-02-19T03:33:09.306Z,74.81
2023-02-19T03:35:42.475Z,75.43
2023-02-19T03:38:13.482Z,75.17
2023-02-19T03:41:10.850Z,75.70
2023-02-19T03:43:54.242Z,75.86
2023-02-19T03:46:23.251Z,74.82
2023-02-19T03:49:00.366Z,75.16
2023-02-19T03:51:32.990Z,75.28
2023-02-19T03:54:15.252Z,75.13
2023-02-19T03:56:52.528Z,76.25
2023-02-19T03:59:28.305Z,76.53
2023-02-19T04:02:05.729Z,76.03
2023-02-19T04:04:57.654Z,75.25
2023-02-19T04:07:25.676Z,77.47
2023-02-19T04:09:52.239Z,79.13
2023-02-19T04:12:19.185Z,80.34
2023-02-19T04:14:53.077Z,79.04
2023-02-19T04:17:24.011Z,80.64
2023-02-19T04:19:51.635Z,79.49
2023-02-19T04:22:18.430Z,79.91
2023-02-19T04:24:48.316Z,80.50
2023-02-19T04:27:15.066Z,80.18
2023-02-19T04:29:41.602Z,80.89
2023-02-19T04:32:10.851Z,80.86
2023-02-19T04:34:37.327Z,82.15
2023-02-19T04:37:04.012Z,80.44
2023-02-19T04:39:30.556Z,81.19
2023-02-19T04:41:57.094Z,81.58
2023-02-19T04:44:23.601Z,81.89
2023-02-19T04:46:50.062Z,81.76
2023-02-19T04:49:16.525Z,82.56
2023-02-19T04:51:43.000Z,82.14
2023-02-19T04:54:09.594Z,81.02
2023-02-19T04:56:36.054Z,80.66
2023-02-19T04:59:02.572Z,82.10
2023-02-19T05:01:29.303Z,81.73
2023-02-19T05:03:55.899Z,79.81
2023-02-19T05:06:22.384Z,81.35
2023-02-19T05:08:48.958Z,79.80
2023-02-19T05:11:15.469Z,80.94
2023-02-19T05:13:42.081Z,80.28
2023-02-19T05:16:13.971Z,80.60
2023-02-19T05:18:41.416Z,80.43
2023-02-19T05:21:08.517Z,79.99
2023-02-19T05:23:35.333Z,80.65
2023-02-19T05:26:09.584Z,80.42
2023-02-19T05:28:36.337Z,80.72
2023-02-19T05:31:07.872Z,81.68
2023-02-19T05:33:34.939Z,82.19
2023-02-19T05:36:06.078Z,81.70
2023-02-19T05:38:32.566Z,81.68
2023-02-19T05:41:08.606Z,80.93
2023-02-19T05:43:35.372Z,81.31
2023-02-19T05:46:01.879Z,80.09
2023-02-19T05:48:28.382Z,81.60
2023-02-19T05:50:54.882Z,82.29
2023-02-19T05:53:21.332Z,81.80
2023-02-19T05:55:47.784Z,82.96
2023-02-19T05:58:14.235Z,82.85
2023-02-19T06:00:40.710Z,81.98
2023-02-19T06:03:07.227Z,82.80
2023-02-19T06:05:33.717Z,81.93
2023-02-19T06:08:00.161Z,80.88
2023-02-19T06:10:28.308Z,82.79
2023-02-19T06:12:55.154Z,82.44
2023-02-19T06:15:21.927Z,81.83
2023-02-19T06:17:48.842Z,81.63
2023-02-19T06:20:15.487Z,81.81
2023-02-19T06:22:41.980Z,81.93
2023-02-19T06:25:12.525Z,81.23
2023-02-19T06:27:39.534Z,82.72
2023-02-19T06:30:06.634Z,81.64
2023-02-19T06:32:33.242Z,80.66
2023-02-19T06:34:59.792Z,80.46
2023-02-19T06:37:26.230Z,81.38
2023-02-19T06:39:52.720Z,81.24
2023-02-19T06:42:19.285Z,79.84
2023-02-19T06:44:45.780Z,81.61
2023-02-19T06:47:12.276Z,81.73
2023-02-19T06:49:41.820Z,81.34
2023-02-19T06:52:08.475Z,82.13
2023-02-19T06:54:34.963Z,80.83
2023-02-19T06:57:01.683Z,79.79
2023-02-19T06:59:28.231Z,80.08
2023-02-19T07:01:54.683Z,79.36
2023-02-19T07:04:21.242Z,80.88
2023-02-19T07:06:47.771Z,80.28
2023-02-19T07:09:14.313Z,80.30
2023-02-19T07:11:40.810Z,80.53
2023-02-19T07:14:08.871Z,81.57
2023-02-19T07:16:36.258Z,81.18
2023-02-19T07:19:02.997Z,81.40
2023-02-19T07:21:29.764Z,82.05
2023-02-19T07:23:57.044Z,82.03
2023-02-19T07:26:24.036Z,81.11
2023-02-19T07:28:51.860Z,82.35
2023-02-19T07:31:20.061Z,82.07
2023-02-19T07:33:47.200Z,82.81
2023-02-19T07:36:15.240Z,80.21
2023-02-19T07:38:41.712Z,82.55
2023-02-19T07:41:08.592Z,81.09
2023-02-19T07:43:36.600Z,81.17
2023-02-19T07:46:05.027Z,81.85
2023-02-19T07:48:31.518Z,82.14
2023-02-19T07:51:00.059Z,83.05
2023-02-19T07:53:27.417Z,82.58
2023-02-19T07:55:54.022Z,82.08
2023-02-19T07:58:20.479Z,81.75
2023-02-19T08:00:46.950Z,82.89
2023-02-19T08:03:13.440Z,83.05
2023-02-19T08:05:42.203Z,82.49
2023-02-19T08:08:10.873Z,82.64
2023-02-19T08:10:55.996Z,81.29
2023-02-19T08:13:23.206Z,82.75
2023-02-19T08:15:52.134Z,84.92
2023-02-19T08:18:20.578Z,81.23
2023-02-19T08:20:47.214Z,84.02
2023-02-19T08:23:14.013Z,82.56
2023-02-19T08:25:41.400Z,81.70
2023-02-19T08:28:09.903Z,80.97
2023-02-19T08:30:38.515Z,82.88
2023-02-19T08:33:06.813Z,81.98
2023-02-19T08:35:35.804Z,81.07
2023-02-19T08:38:02.904Z,80.73
2023-02-19T08:40:29.461Z,81.70
2023-02-19T08:42:55.930Z,80.60
2023-02-19T08:45:24.279Z,79.34
2023-02-19T08:47:50.841Z,79.13
2023-02-19T08:50:17.328Z,81.92
2023-02-19T08:52:43.800Z,81.85
2023-02-19T08:55:10.337Z,81.35
2023-02-19T08:57:41.585Z,79.31
2023-02-19T09:00:09.096Z,80.59
2023-02-19T09:02:35.985Z,80.36
2023-02-19T09:05:02.509Z,77.94
2023-02-19T09:07:29.046Z,78.84
2023-02-19T09:09:55.508Z,79.62
2023-02-19T09:12:21.971Z,80.01
2023-02-19T09:14:48.619Z,78.11
2023-02-19T09:17:15.127Z,77.91
2023-02-19T09:19:41.903Z,78.03
2023-02-19T09:22:08.659Z,79.14
2023-02-19T09:24:35.398Z,78.55
2023-02-19T09:27:01.914Z,77.44
2023-02-19T09:29:29.096Z,76.18
2023-02-19T09:31:59.554Z,76.12
2023-02-19T09:34:27.301Z,75.71
2023-02-19T09:36:54.722Z,76.15
2023-02-19T09:39:21.498Z,75.83
2023-02-19T09:41:56.109Z,75.88
2023-02-19T09:44:29.262Z,75.26
2023-02-19T09:46:56.332Z,75.46
2023-02-19T09:49:30.943Z,74.71
2023-02-19T09:52:07.277Z,75.65
2023-02-19T09:54:39.568Z,74.21
2023-02-19T09:57:13.187Z,72.25
2023-02-19T09:59:42.461Z,74.87
2023-02-19T10:02:16.151Z,72.76
2023-02-19T10:04:44.043Z,70.78
2023-02-19T10:07:13.410Z,71.61
2023-02-19T10:09:39.982Z,71.73
2023-02-19T10:12:19.280Z,72.34
2023-02-19T10:14:49.114Z,71.56
2023-02-19T10:17:27.667Z,69.55
2023-02-19T10:19:54.247Z,68.31
2023-02-19T10:22:20.782Z,68.24
2023-02-19T10:24:51.747Z,67.35
2023-02-19T10:27:18.743Z,67.45
2023-02-19T10:29:46.901Z,66.10
2023-02-19T10:32:24.165Z,66.50
2023-02-19T10:35:09.633Z,65.37
2023-02-19T10:37:36.886Z,65.89
2023-02-19T10:40:03.607Z,65.04
2023-02-19T10:42:30.173Z,64.27
2023-02-19T10:45:01.808Z,65.52
2023-02-19T10:47:30.255Z,65.19
2023-02-19T10:49:58.410Z,64.04
2023-02-19T10:52:28.695Z,64.98
2023-02-19T10:55:25.705Z,63.88
2023-02-19T10:57:52.164Z,64.49
2023-02-19T11:00:30.557Z,63.29
2023-02-19T11:03:32.684Z,62.60
2023-02-19T11:06:03.856Z,64.45
2023-02-19T11:08:31.318Z,64.94
2023-02-19T11:10:57.856Z,63.84
2023-02-19T11:13:33.296Z,62.30
2023-02-19T11:16:00.322Z,62.19
2023-02-19T11:18:33.382Z,62.57
2023-02-19T11:21:05.122Z,61.60
2023-02-19T11:23:37.386Z,61.20
2023-02-19T11:26:06.541Z,61.24
2023-02-19T11:28:35.465Z,59.83
2023-02-19T11:31:20.387Z,61.08
2023-02-19T11:33:57.247Z,61.53
2023-02-19T11:36:31.026Z,61.22
2023-02-19T11:38:59.207Z,61.14
2023-02-19T11:41:44.011Z,60.88
2023-02-19T11:44:31.811Z,58.60
2023-02-19T11:47:17.260Z,60.46
2023-02-19T11:49:50.283Z,60.34
2023-02-19T11:52:58.910Z,59.35
2023-02-19T11:55:47.030Z,58.22
2023-02-19T11:58:44.519Z,57.28
2023-02-19T12:01:33.773Z,56.25
2023-02-19T12:04:31.194Z,56.60
2023-02-19T12:07:11.702Z,57.12
2023-02-19T12:10:04.146Z,57.43
2023-02-19T12:12:41.692Z,55.76
2023-02-19T12:15:26.406Z,57.35
2023-02-19T12:18:00.031Z,57.30
2023-02-19T12:20:41.665Z,57.13
2023-02-19T12:23:38.455Z,57.65
2023-02-19T12:26:16.925Z,56.59
2023-02-19T12:28:43.346Z,55.17
2023-02-19T12:31:34.672Z,55.56
2023-02-19T12:34:10.788Z,54.48
2023-02-19T12:36:54.497Z,55.28
2023-02-19T12:39:34.258Z,53.94
2023-02-19T12:42:25.974Z,53.05
2023-02-19T12:44:58.783Z,52.41
2023-02-19T12:47:29.893Z,54.59
2023-02-19T12:50:24.755Z,54.71
2023-02-19T12:52:57.318Z,55.15
2023-02-19T12:55:34.572Z,54.68
2023-02-19T12:58:05.885Z,52.44
2023-02-19T13:00:36.734Z,52.50
2023-02-19T13:03:09.991Z,52.42
2023-02-19T13:06:00.004Z,55.37
2023-02-19T13:08:36.566Z,55.53
2023-02-19T13:11:15.858Z,55.82
2023-02-19T13:14:24.429Z,55.66
2023-02-19T13:16:57.520Z,55.54
2023-02-19T13:19:25.379Z,55.75
2023-02-19T13:22:36.960Z,55.07
2023-02-19T13:25:08.126Z,53.90
2023-02-19T13:28:24.573Z,56.12
2023-02-19T13:31:08.618Z,59.46
2023-02-19T13:34:20.748Z,58.42
2023-02-19T13:36:49.893Z,58.15
2023-02-19T13:39:18.385Z,58.33
2023-02-19T13:42:04.189Z,57.45
2023-02-19T13:44:33.927Z,56.17
2023-02-19T13:47:01.265Z,57.78
2023-02-19T13:49:37.255Z,59.51
2023-02-19T13:52:28.941Z,58.36
2023-02-19T13:55:33.358Z,58.83
2023-02-19T13:58:33.734Z,58.29
2023-02-19T14:01:10.428Z,58.73
2023-02-19T14:03:37.896Z,59.54
2023-02-19T14:06:10.584Z,59.20
2023-02-19T14:08:51.406Z,59.26
2023-02-19T14:11:48.242Z,58.97
2023-02-19T14:14:37.440Z,57.75
2023-02-19T14:17:09.835Z,58.69
2023-02-19T14:19:42.641Z,59.35
2023-02-19T14:22:56.862Z,58.84
2023-02-19T14:25:40.112Z,59.31
2023-02-19T14:28:15.714Z,60.53
2023-02-19T14:30:50.294Z,60.42
2023-02-19T14:33:19.881Z,59.85
2023-02-19T14:35:49.229Z,58.97
2023-02-19T14:38:26.132Z,60.08
2023-02-19T14:40:53.800Z,59.58
2023-02-19T14:43:22.691Z,59.02
2023-02-19T14:46:00.944Z,60.31
2023-02-19T14:48:34.623Z,59.91
2023-02-19T14:51:06.120Z,59.51
2023-02-19T14:53:37.859Z,60.67
2023-02-19T14:56:05.198Z,61.84
2023-02-19T14:58:32.736Z,62.43
2023-02-19T15:00:59.832Z,63.33
2023-02-19T15:03:31.218Z,61.08
2023-02-19T15:06:16.429Z,62.54
2023-02-19T15:08:52.516Z,63.13
2023-02-19T15:11:21.917Z,61.48
2023-02-19T15:13:54.753Z,62.48
2023-02-19T15:16:24.669Z,63.41
2023-02-19T15:18:52.545Z,62.24
2023-02-19T15:21:23.933Z,63.38
2023-02-19T15:23:51.504Z,63.06
2023-02-19T15:26:21.611Z,61.26
2023-02-19T15:28:57.336Z,62.03
2023-02-19T15:31:23.913Z,62.67
2023-02-19T15:33:53.822Z,62.95
2023-02-19T15:36:28.140Z,61.31
2023-02-19T15:38:56.963Z,62.19
2023-02-19T15:41:25.969Z,63.67
2023-02-19T15:44:24.588Z,63.72
2023-02-19T15:46:51.261Z,62.49
2023-02-19T15:49:24.339Z,62.44
2023-02-19T15:51:56.759Z,61.20
2023-02-19T15:54:34.331Z,61.10
2023-02-19T15:57:07.442Z,62.52
2023-02-19T15:59:41.311Z,62.01
2023-02-19T16:02:13.475Z,63.94
2023-02-19T16:04:42.018Z,63.06
2023-02-19T16:07:24.006Z,66.28
2023-02-19T16:10:05.809Z,65.84
2023-02-19T16:12:32.792Z,66.69
2023-02-19T16:14:59.329Z,68.22
2023-02-19T16:17:28.113Z,68.10
2023-02-19T16:19:57.671Z,68.46
2023-02-19T16:22:26.722Z,68.17
2023-02-19T16:24:59.059Z,68.25
2023-02-19T16:27:40.676Z,68.72
2023-02-19T16:30:16.239Z,67.11
2023-02-19T16:32:45.395Z,67.83
2023-02-19T16:35:38.465Z,68.42
2023-02-19T16:38:13.683Z,68.76
2023-02-19T16:40:43.188Z,68.78
2023-02-19T16:43:15.689Z,66.49
2023-02-19T16:45:45.918Z,69.95
2023-02-19T16:48:12.903Z,69.07
2023-02-19T16:50:41.531Z,69.26
2023-02-19T16:53:19.334Z,68.43
2023-02-19T16:55:46.162Z,67.23
2023-02-19T16:58:12.730Z,67.29
2023-02-19T17:00:39.942Z,69.18
2023-02-19T17:03:11.956Z,68.37
2023-02-19T17:05:39.830Z,67.39
2023-02-19T17:08:37.120Z,67.48
2023-02-19T17:11:06.032Z,68.92
2023-02-19T17:13:33.736Z,68.35
2023-02-19T17:16:00.255Z,69.34
2023-02-19T17:18:26.793Z,69.07
2023-02-19T17:21:21.353Z,70.14
2023-02-19T17:23:47.936Z,69.38
2023-02-19T17:26:20.473Z,69.48
2023-02-19T17:28:47.396Z,70.03
2023-02-19T17:31:17.436Z,68.84
2023-02-19T17:33:44.503Z,69.39
2023-02-19T17:36:22.129Z,70.21
2023-02-19T17:38:48.679Z,70.99
2023-02-19T17:41:15.451Z,69.67
2023-02-19T17:43:41.882Z,69.32
2023-02-19T17:46:17.052Z,71.37
2023-02-19T17:48:43.643Z,71.42
2023-02-19T17:51:10.698Z,72.36
2023-02-19T17:53:37.524Z,72.51
2023-02-19T17:56:04.379Z,72.39
2023-02-19T17:58:30.886Z,72.71
2023-02-19T18:00:57.527Z,73.46
2023-02-19T18:03:24.843Z,73.53
2023-02-19T18:05:51.611Z,74.54
2023-02-19T18:08:18.277Z,74.81
2023-02-19T18:10:44.901Z,73.54
2023-02-19T18:13:11.863Z,73.42
2023-02-19T18:15:38.385Z,73.43
2023-02-19T18:18:05.007Z,73.06
2023-02-19T18:20:31.864Z,72.37
2023-02-19T18:22:58.741Z,72.52
2023-02-19T18:25:25.414Z,73.42
2023-02-19T18:27:51.929Z,74.40
2023-02-19T18:30:20.478Z,75.65
2023-02-19T18:32:49.902Z,74.14
2023-02-19T18:35:17.788Z,75.14
2023-02-19T18:37:44.291Z,74.28
2023-02-19T18:40:11.885Z,74.77
2023-02-19T18:42:39.224Z,73.92
2023-02-19T18:45:05.877Z,74.72
2023-02-19T18:47:32.326Z,74.71
2023-02-19T18:49:59.612Z,75.47
2023-02-19T18:52:27.205Z,73.39
2023-02-19T18:54:55.195Z,73.23
2023-02-19T18:57:22.723Z,73.08
2023-02-19T18:59:49.775Z,72.69
2023-02-19T19:02:16.391Z,73.31
2023-02-19T19:04:43.297Z,73.07
2023-02-19T19:07:10.367Z,74.36
2023-02-19T19:09:37.039Z,72.37
2023-02-19T19:12:03.961Z,74.08
2023-02-19T19:14:30.430Z,72.39
2023-02-19T19:16:56.994Z,73.57
2023-02-19T19:19:23.479Z,73.58
2023-02-19T19:21:53.282Z,72.97
2023-02-19T19:24:20.518Z,73.03
2023-02-19T19:26:48.996Z,74.62
2023-02-19T19:29:17.229Z,73.47
2023-02-19T19:31:44.435Z,74.14
2023-02-19T19:34:11.702Z,74.45
2023-02-19T19:36:38.507Z,73.17
2023-02-19T19:39:05.146Z,74.36
2023-02-19T19:41:31.936Z,75.12
2023-02-19T19:44:02.568Z,75.08
2023-02-19T19:46:29.141Z,74.20
2023-02-19T19:48:55.617Z,73.02
2023-02-19T19:51:22.065Z,74.41
2023-02-19T19:53:49.367Z,74.24
2023-02-19T19:56:16.938Z,74.36
2023-02-19T19:58:43.474Z,73.01
2023-02-19T20:01:10.335Z,73.59
2023-02-19T20:03:37.659Z,74.18
2023-02-19T20:06:04.434Z,75.15
2023-02-19T20:08:30.916Z,74.17
2023-02-19T20:10:57.387Z,72.80
2023-02-19T20:13:24.731Z,74.23
2023-02-19T20:15:51.880Z,74.86
2023-02-19T20:18:18.366Z,76.36
2023-02-19T20:20:44.845Z,74.82
2023-02-19T20:23:11.376Z,74.49
2023-02-19T20:25:37.906Z,76.17
2023-02-19T20:28:04.486Z,74.54
2023-02-19T20:30:30.991Z,75.24
2023-02-19T20:32:57.562Z,75.87
2023-02-19T20:35:28.466Z,75.86
2023-02-19T20:37:55.602Z,76.01
2023-02-19T20:40:27.344Z,76.23
2023-02-19T20:42:54.139Z,76.52
2023-02-19T20:45:21.379Z,75.93
2023-02-19T20:47:48.032Z,75.71
2023-02-19T20:50:17.358Z,75.17
2023-02-19T20:52:43.980Z,75.60
2023-02-19T20:55:10.561Z,77.21
2023-02-19T20:57:37.616Z,75.77
2023-02-19T21:00:05.705Z,76.66
2023-02-19T21:02:32.216Z,76.44
2023-02-19T21:04:58.772Z,76.45
2023-02-19T21:07:25.606Z,78.55
2023-02-19T21:09:52.640Z,77.59
2023-02-19T21:12:20.466Z,75.89
2023-02-19T21:14:47.107Z,78.36
2023-02-19T21:17:13.698Z,78.17
2023-02-19T21:19:40.264Z,78.27
2023-02-19T21:22:06.775Z,78.56
2023-02-19T21:24:33.680Z,77.99
2023-02-19T21:27:00.437Z,76.52
2023-02-19T21:29:27.200Z,77.07
2023-02-19T21:31:56.008Z,77.45
2023-02-19T21:34:28.511Z,77.48
2023-02-19T21:36:57.500Z,77.99
2023-02-19T21:39:25.632Z,78.85
2023-02-19T21:41:52.323Z,77.77
2023-02-19T21:44:21.256Z,77.91
2023-02-19T21:46:48.109Z,78.23
2023-02-19T21:49:14.618Z,79.09
2023-02-19T21:51:42.706Z,79.60
2023-02-19T21:54:24.708Z,78.08
2023-02-19T21:56:52.579Z,79.18
2023-02-19T21:59:20.333Z,77.48
2023-02-19T22:01:47.124Z,78.26
2023-02-19T22:04:16.910Z,78.82
2023-02-19T22:06:44.219Z,77.99
2023-02-19T22:09:11.176Z,78.98
2023-02-19T22:11:38.181Z,76.59
2023-02-19T22:14:04.671Z,77.50
2023-02-19T22:16:31.273Z,76.84
2023-02-19T22:18:59.287Z,75.46
2023-02-19T22:21:33.633Z,76.65
2023-02-19T22:24:01.393Z,77.35
2023-02-19T22:26:34.568Z,77.12
2023-02-19T22:29:05.928Z,76.86
2023-02-19T22:31:32.957Z,76.56
2023-02-19T22:33:59.515Z,77.48
2023-02-19T22:36:28.634Z,78.00
2023-02-19T22:38:55.105Z,77.75
2023-02-19T22:41:21.747Z,76.95
2023-02-19T22:43:48.991Z,78.19
2023-02-19T22:46:19.499Z,77.40
2023-02-19T22:48:46.327Z,77.75
2023-02-19T22:51:15.143Z,77.45
2023-02-19T22:53:51.688Z,78.86
2023-02-19T22:56:19.614Z,78.22
2023-02-19T22:58:46.071Z,77.68
2023-02-19T23:01:13.413Z,79.08
2023-02-19T23:03:57.168Z,79.57
2023-02-19T23:06:28.592Z,78.75
2023-02-19T23:08:56.715Z,78.88
2023-02-19T23:11:25.749Z,77.55
2023-02-19T23:13:52.683Z,77.65
2023-02-19T23:16:19.240Z,77.93
2023-02-19T23:18:45.988Z,81.34
2023-02-19T23:21:13.265Z,79.87
2023-02-19T23:23:43.525Z,78.63
2023-02-19T23:26:10.532Z,77.61
2023-02-19T23:28:39.200Z,78.80
2023-02-19T23:31:05.911Z,79.94
2023-02-19T23:33:32.505Z,79.04
2023-02-19T23:35:59.272Z,80.71
2023-02-19T23:38:25.749Z,78.60
2023-02-19T23:40:52.239Z,78.87
2023-02-19T23:43:18.705Z,78.64
2023-02-19T23:45:45.153Z,79.71
2023-02-19T23:48:11.813Z,78.83
2023-02-19T23:50:38.368Z,77.34
2023-02-19T23:53:04.873Z,78.79
2023-02-19T23:55:31.311Z,78.96
2023-02-19T23:57:57.785Z,78.78
